Fort Ross, California
Current Conditions -  °F | °C
As of 11:53 AM on Friday 24 Oct 2014 (Local Time) from KSTS Reporting Station
Clear Clear  
Wind Chill: 66°   Ceiling: Unl
Heat Index: 66°   Visibility: 10mi
Dew Point: 54°   Wind: 0mph
Humidity: 65%   Direction: NA
Pressure: 29.94"   Gusts: NA
Location:  38.4962°N, 123.173°W
Report Text: KSTS 241853Z 00000KT 10SM CLR 19/12 A2994 RMK AO2 SLP133 T01890122
Loading
Personal Weather Stations






























Interactive Weather Map
Tropical Storm Tracking
New forecast layout! Learn more

10-Day Weather Forecast

Advertisements
Track Severe Weather on mobile